Montpelier, Iowa
Current Conditions -  °F | °C
As of 7:52 PM on Sunday 21 Dec 2014 (Local Time) from KDVN Reporting Station
Overcast Overcast  
Wind Chill: 25°   Ceiling: 2600
Heat Index: 35°   Visibility: 8mi
Dew Point: 30°   Wind: 17mph
Humidity: 82%   Direction: 160°SSE
Pressure: 29.96"   Gusts: NA
Location:  41.46°N, 90.81°W
Report Text: KDVN 220152Z AUTO 16015KT 8SM BKN026 OVC041 02/M01 A2996 RMK AO2 SLP152 T00171011
Loading
Personal Weather Stations






























Interactive Weather Map New forecast layout! Learn more

10-Day Weather Forecast

Advertisements
Track Severe Weather on mobile